Time;durP1;ratioP1;P1;durP2;ratioP2;P2;SDS_P1;SDS_P2;PMS_P1;PMS_P2;Temp;Humidity;BMP_temperature;BMP_pressure;BME280_temperature;BME280_humidity;BME280_pressure;Samples;Min_cycle;Max_cycle;Signal;HPM_P1;HPM_P2
2023/12/03 00:02:08;;;;;;;21.08;13.07;;;4.90;94.10;;;;;;4999850;28;20216;-41
2023/12/03 00:04:36;;;;;;;17.77;12.32;;;4.90;94.10;;;;;;4998039;28;20221;-40
2023/12/03 00:07:02;;;;;;;18.85;12.07;;;4.90;94.20;;;;;;5001965;28;20309;-40
2023/12/03 00:09:29;;;;;;;19.42;12.35;;;4.90;94.10;;;;;;5002455;28;20237;-40
2023/12/03 00:11:55;;;;;;;21.00;13.63;;;4.90;94.10;;;;;;5002706;28;20202;-38
2023/12/03 00:14:21;;;;;;;22.17;13.73;;;4.90;94.10;;;;;;5001286;28;20202;-39
2023/12/03 00:16:46;;;;;;;21.60;13.70;;;4.90;94.10;;;;;;5002250;28;20793;-38
2023/12/03 00:19:13;;;;;;;20.13;12.83;;;4.90;94.10;;;;;;5000313;28;20209;-37
2023/12/03 00:21:39;;;;;;;21.95;13.65;;;4.90;94.10;;;;;;5000020;28;20439;-40
2023/12/03 00:24:05;;;;;;;21.13;13.60;;;4.90;94.20;;;;;;5000135;28;20230;-41
2023/12/03 00:26:32;;;;;;;19.25;13.02;;;4.90;94.10;;;;;;4999984;28;20544;-39
2023/12/03 00:28:57;;;;;;;19.52;12.32;;;4.90;94.10;;;;;;5001956;28;20239;-39
2023/12/03 00:31:26;;;;;;;18.47;13.40;;;4.80;94.00;;;;;;4983291;28;20219;-41
2023/12/03 00:33:52;;;;;;;20.10;13.52;;;4.80;94.10;;;;;;4999530;28;20475;-40
2023/12/03 00:36:18;;;;;;;21.37;14.17;;;4.80;94.10;;;;;;5001457;28;20190;-40
2023/12/03 00:38:44;;;;;;;22.20;13.77;;;4.80;94.10;;;;;;4999284;28;21046;-41
2023/12/03 00:41:10;;;;;;;22.40;13.00;;;4.80;94.10;;;;;;4999176;28;20190;-40
2023/12/03 00:43:38;;;;;;;25.50;14.43;;;4.90;94.20;;;;;;5000859;28;20210;-41
2023/12/03 00:46:04;;;;;;;21.75;13.93;;;4.90;94.20;;;;;;5000325;28;20965;-40
2023/12/03 00:48:30;;;;;;;24.40;14.63;;;4.90;94.10;;;;;;4997235;28;20239;-38
2023/12/03 00:50:56;;;;;;;23.00;14.37;;;4.90;94.20;;;;;;4983838;28;20534;-41
2023/12/03 00:53:22;;;;;;;23.50;14.93;;;4.90;94.10;;;;;;4999711;28;20505;-40
2023/12/03 00:55:48;;;;;;;26.43;15.97;;;4.90;94.20;;;;;;4999679;28;20194;-37
2023/12/03 00:58:14;;;;;;;24.30;14.80;;;4.80;94.20;;;;;;5000565;28;20528;-40
2023/12/03 01:00:43;;;;;;;24.47;14.37;;;4.80;94.20;;;;;;5000278;28;20212;-41
2023/12/03 01:03:12;;;;;;;25.48;15.68;;;4.80;94.20;;;;;;4999192;28;21130;-37
2023/12/03 01:05:38;;;;;;;19.70;12.90;;;4.90;94.30;;;;;;4999108;28;20298;-38
2023/12/03 01:08:04;;;;;;;21.65;14.45;;;4.90;94.30;;;;;;4999628;28;21254;-41
2023/12/03 01:10:32;;;;;;;25.27;14.45;;;4.90;94.30;;;;;;5000964;28;20177;-40
2023/12/03 01:12:58;;;;;;;19.88;14.32;;;4.80;94.30;;;;;;5000252;28;20849;-39
2023/12/03 01:15:25;;;;;;;25.43;15.20;;;4.90;94.40;;;;;;4999303;28;20186;-40
2023/12/03 01:17:51;;;;;;;24.50;14.95;;;4.90;94.40;;;;;;4996601;28;20798;-40
2023/12/03 01:20:17;;;;;;;24.15;15.15;;;4.90;94.40;;;;;;5001120;28;20276;-39
2023/12/03 01:22:45;;;;;;;23.13;14.52;;;4.80;94.50;;;;;;4999572;28;20181;-41
2023/12/03 01:25:12;;;;;;;22.67;14.25;;;4.80;94.50;;;;;;4999552;28;20240;-40
2023/12/03 01:27:38;;;;;;;23.83;15.23;;;4.80;94.50;;;;;;4999861;28;20260;-40
2023/12/03 01:30:07;;;;;;;22.25;13.15;;;4.90;94.90;;;;;;5000631;28;20178;-41
2023/12/03 01:32:33;;;;;;;21.20;13.93;;;4.90;94.60;;;;;;5010837;28;20298;-40
2023/12/03 01:35:02;;;;;;;26.05;14.35;;;4.80;94.60;;;;;;4999016;28;20704;-41
2023/12/03 01:37:29;;;;;;;26.65;14.60;;;4.80;94.60;;;;;;5000139;28;20269;-40
2023/12/03 01:39:57;;;;;;;22.65;14.00;;;4.90;94.60;;;;;;5000206;28;20190;-37
2023/12/03 01:42:24;;;;;;;24.30;14.67;;;4.90;94.60;;;;;;4999723;28;20271;-40
2023/12/03 01:44:51;;;;;;;24.00;16.02;;;4.90;94.70;;;;;;4998163;28;20472;-41
2023/12/03 01:47:18;;;;;;;27.45;14.93;;;4.90;94.70;;;;;;4995458;28;20194;-41
2023/12/03 01:49:45;;;;;;;23.20;15.40;;;4.90;94.70;;;;;;4998359;28;20190;-39
2023/12/03 01:52:12;;;;;;;25.88;14.70;;;4.90;94.70;;;;;;4981759;28;20214;-40
2023/12/03 01:54:44;;;;;;;23.38;14.43;;;4.90;94.70;;;;;;4997357;28;20637;-39
2023/12/03 01:57:11;;;;;;;21.08;12.77;;;4.90;94.80;;;;;;4999434;28;20976;-38
2023/12/03 01:59:37;;;;;;;22.10;14.50;;;4.80;95.10;;;;;;4999950;28;20194;-37
2023/12/03 02:02:04;;;;;;;20.17;13.02;;;4.90;94.80;;;;;;4999993;28;20311;-38
2023/12/03 02:04:30;;;;;;;27.08;15.60;;;4.90;94.80;;;;;;4999161;28;20244;-41
2023/12/03 02:06:56;;;;;;;25.13;14.15;;;4.90;94.80;;;;;;4999894;28;20225;-40
2023/12/03 02:09:23;;;;;;;23.60;15.95;;;4.90;94.90;;;;;;4999206;28;20207;-40
2023/12/03 02:11:50;;;;;;;23.27;14.70;;;4.90;94.90;;;;;;4999449;28;20240;-40
2023/12/03 02:14:16;;;;;;;23.70;14.40;;;4.90;94.90;;;;;;4999250;28;20696;-39
2023/12/03 02:16:45;;;;;;;21.40;14.75;;;4.90;95.00;;;;;;4998563;28;20213;-37
2023/12/03 02:19:11;;;;;;;24.50;15.48;;;4.90;95.00;;;;;;4999136;28;20659;-39
2023/12/03 02:21:40;;;;;;;23.70;14.68;;;4.90;95.00;;;;;;4999801;28;20201;-41
2023/12/03 02:24:06;;;;;;;24.13;14.50;;;4.90;95.00;;;;;;4981321;28;20787;-40
2023/12/03 02:26:32;;;;;;;26.30;15.00;;;4.90;95.10;;;;;;4998078;28;20606;-40
2023/12/03 02:29:00;;;;;;;22.63;14.87;;;4.90;95.00;;;;;;4997712;28;20206;-40
2023/12/03 02:31:30;;;;;;;21.67;14.20;;;4.90;95.00;;;;;;4999361;28;20441;-40
2023/12/03 02:34:13;;;;;;;26.42;14.63;;;4.90;95.00;;;;;;4997298;28;20963;-40
2023/12/03 02:36:39;;;;;;;21.73;13.77;;;4.90;95.10;;;;;;4997739;28;20210;-40
2023/12/03 02:39:06;;;;;;;26.42;15.18;;;4.90;95.00;;;;;;4999121;28;20182;-35
2023/12/03 02:41:32;;;;;;;23.98;14.50;;;4.90;95.10;;;;;;4998029;28;20663;-40
2023/12/03 02:43:58;;;;;;;26.33;14.95;;;4.90;95.10;;;;;;4999209;28;20201;-38
2023/12/03 02:46:24;;;;;;;24.13;14.15;;;4.90;95.10;;;;;;4998205;28;20738;-41
2023/12/03 02:48:50;;;;;;;33.55;14.88;;;4.80;95.10;;;;;;4999213;28;20213;-41
2023/12/03 02:51:16;;;;;;;22.38;14.52;;;4.90;95.10;;;;;;4997543;28;20216;-39
2023/12/03 02:53:46;;;;;;;23.80;13.30;;;4.90;95.10;;;;;;4997037;28;20346;-40
2023/12/03 02:56:12;;;;;;;21.58;13.30;;;4.90;95.10;;;;;;4997482;28;20448;-38
2023/12/03 02:58:39;;;;;;;22.33;15.23;;;4.90;95.10;;;;;;4997698;28;20303;-37
2023/12/03 03:01:08;;;;;;;23.13;15.45;;;4.90;95.20;;;;;;4999381;28;20247;-38
2023/12/03 03:03:34;;;;;;;22.27;13.40;;;4.90;95.10;;;;;;4995621;28;20633;-39
2023/12/03 03:06:00;;;;;;;25.10;15.05;;;4.90;95.10;;;;;;4999549;28;20242;-38
2023/12/03 03:08:26;;;;;;;23.48;13.95;;;4.90;95.10;;;;;;5001180;28;20556;-40
2023/12/03 03:10:52;;;;;;;22.17;14.83;;;4.90;95.10;;;;;;5001573;28;20182;-40
2023/12/03 03:13:18;;;;;;;24.83;14.10;;;4.90;95.10;;;;;;5002448;28;20528;-40
2023/12/03 03:15:44;;;;;;;22.87;14.43;;;4.90;95.10;;;;;;5002337;28;20425;-40
2023/12/03 03:18:12;;;;;;;23.48;14.40;;;4.90;95.10;;;;;;5000688;28;20440;-36
2023/12/03 03:20:38;;;;;;;19.25;13.80;;;4.90;95.10;;;;;;5002126;28;20798;-40
2023/12/03 03:23:04;;;;;;;22.03;14.60;;;4.90;95.10;;;;;;5002573;28;20301;-40
2023/12/03 03:25:30;;;;;;;22.88;13.50;;;4.90;95.10;;;;;;5002950;28;20848;-41
2023/12/03 03:27:56;;;;;;;19.75;13.48;;;4.90;95.10;;;;;;5002971;28;20268;-38
2023/12/03 03:30:23;;;;;;;22.40;13.20;;;4.90;95.10;;;;;;5002327;28;20698;-38
2023/12/03 03:32:49;;;;;;;22.67;14.50;;;4.90;95.20;;;;;;4998115;28;20674;-41
2023/12/03 03:35:15;;;;;;;22.38;14.25;;;4.90;95.20;;;;;;5001397;28;20207;-42
2023/12/03 03:37:41;;;;;;;20.60;11.33;;;4.90;95.40;;;;;;5000657;28;20190;-40
2023/12/03 03:40:08;;;;;;;19.58;12.52;;;4.90;95.20;;;;;;5000721;28;20452;-38
2023/12/03 03:42:34;;;;;;;21.55;12.88;;;4.90;95.10;;;;;;5002501;28;20198;-40
2023/12/03 03:44:59;;;;;;;19.70;13.40;;;4.90;95.20;;;;;;5000432;28;20213;-40
2023/12/03 03:47:26;;;;;;;19.80;12.60;;;4.90;95.20;;;;;;5002144;28;20425;-39
2023/12/03 03:49:51;;;;;;;20.80;12.55;;;4.90;95.20;;;;;;5002029;28;20645;-37
2023/12/03 03:52:17;;;;;;;21.27;12.80;;;4.90;95.20;;;;;;5002130;28;20301;-37
2023/12/03 03:54:43;;;;;;;21.13;12.35;;;4.90;95.20;;;;;;5001500;28;20452;-36
2023/12/03 03:57:10;;;;;;;23.00;13.15;;;4.90;95.20;;;;;;4995892;28;20189;-40
2023/12/03 03:59:36;;;;;;;20.17;12.30;;;4.90;95.10;;;;;;5000247;28;20319;-41
2023/12/03 04:02:01;;;;;;;20.27;13.23;;;4.90;95.10;;;;;;5002279;28;20298;-40
2023/12/03 04:04:29;;;;;;;19.90;12.13;;;4.90;95.10;;;;;;5001245;28;20507;-38
2023/12/03 04:06:55;;;;;;;17.63;12.18;;;4.90;95.10;;;;;;5003023;28;20460;-36
2023/12/03 04:09:23;;;;;;;19.30;12.15;;;4.90;95.10;;;;;;5001966;28;20189;-36
2023/12/03 04:11:49;;;;;;;19.23;12.30;;;4.90;95.50;;;;;;4984650;28;20252;-39
2023/12/03 04:14:17;;;;;;;20.92;13.32;;;4.90;95.10;;;;;;4999592;28;20456;-40
2023/12/03 04:16:46;;;;;;;16.70;11.05;;;4.90;95.20;;;;;;5001870;28;20197;-38
2023/12/03 04:19:12;;;;;;;19.25;12.02;;;4.90;95.20;;;;;;5001226;28;20686;-35
2023/12/03 04:21:39;;;;;;;22.80;12.50;;;4.90;95.20;;;;;;5001607;28;20280;-41
2023/12/03 04:24:07;;;;;;;20.38;12.40;;;4.90;95.20;;;;;;5000028;28;20241;-39
2023/12/03 04:26:33;;;;;;;18.08;11.15;;;4.90;95.20;;;;;;4997959;28;20193;-39
2023/12/03 04:29:04;;;;;;;18.88;12.40;;;4.90;95.20;;;;;;5001004;28;20225;-40
2023/12/03 04:31:30;;;;;;;19.57;10.77;;;4.90;95.20;;;;;;5001450;28;20865;-41
2023/12/03 04:33:59;;;;;;;20.80;11.73;;;4.90;95.20;;;;;;5001612;28;20976;-40
2023/12/03 04:36:27;;;;;;;17.80;12.40;;;4.90;95.20;;;;;;4999942;28;20883;-38
2023/12/03 04:38:53;;;;;;;18.85;10.82;;;4.90;95.20;;;;;;4997427;28;20182;-38
2023/12/03 04:41:20;;;;;;;17.48;10.05;;;4.90;95.20;;;;;;5000793;28;20217;-41
2023/12/03 04:43:46;;;;;;;16.40;11.43;;;4.90;95.20;;;;;;5000157;28;20220;-37
2023/12/03 04:46:15;;;;;;;17.83;10.95;;;4.90;95.20;;;;;;5000765;28;20214;-40
2023/12/03 04:48:42;;;;;;;17.83;11.65;;;4.90;95.20;;;;;;5000918;28;20220;-39
2023/12/03 04:51:14;;;;;;;19.20;12.15;;;4.90;95.20;;;;;;4999378;28;20739;-39
2023/12/03 04:53:41;;;;;;;17.70;11.07;;;4.90;95.20;;;;;;5001052;28;20201;-40
2023/12/03 04:56:08;;;;;;;19.17;11.57;;;4.90;95.20;;;;;;4998989;28;20182;-40
2023/12/03 04:58:34;;;;;;;16.75;10.93;;;4.90;95.20;;;;;;4998895;28;20219;-39
2023/12/03 05:01:03;;;;;;;12.60;9.35;;;4.90;95.20;;;;;;5000595;28;20185;-40
2023/12/03 05:03:31;;;;;;;15.48;10.38;;;4.90;95.20;;;;;;5000460;28;21083;-38
2023/12/03 05:05:58;;;;;;;15.10;10.55;;;5.00;95.30;;;;;;5000366;28;20214;-39
2023/12/03 05:08:23;;;;;;;15.63;9.77;;;4.90;95.20;;;;;;5014395;28;20589;-36
2023/12/03 05:10:50;;;;;;;20.17;11.77;;;4.90;95.20;;;;;;4998798;28;20240;-38
2023/12/03 05:13:16;;;;;;;14.82;10.20;;;5.00;95.30;;;;;;5000852;28;20456;-42
2023/12/03 05:15:42;;;;;;;17.40;10.45;;;5.00;95.30;;;;;;4999306;28;20198;-40
2023/12/03 05:18:08;;;;;;;16.48;10.75;;;4.90;95.40;;;;;;4999573;28;20197;-40
2023/12/03 05:20:36;;;;;;;17.67;10.57;;;4.90;95.30;;;;;;5015378;23;20233;-87
2023/12/03 05:23:04;;;;;;;13.98;9.52;;;5.00;95.30;;;;;;5031982;28;20228;-85
2023/12/03 05:29:28;;;;;;;;;;;;;;;;;;;;;
2023/12/03 05:32:41;;;;;;;16.90;9.35;;;5.00;95.30;;;;;;5027754;28;20203;-87
2023/12/03 05:35:07;;;;;;;15.75;10.13;;;5.00;95.40;;;;;;5017052;28;20201;-88
2023/12/03 05:37:36;;;;;;;13.13;8.55;;;4.90;95.30;;;;;;4993461;28;20197;-87
2023/12/03 05:40:05;;;;;;;14.20;9.57;;;5.00;95.40;;;;;;5032855;28;20224;-86
2023/12/03 05:42:36;;;;;;;15.25;9.55;;;4.90;95.30;;;;;;5018955;28;20555;-86
2023/12/03 05:45:03;;;;;;;16.73;9.90;;;4.90;95.30;;;;;;5017591;28;20255;-87
2023/12/03 05:47:30;;;;;;;13.13;9.45;;;5.00;95.40;;;;;;5001419;28;20251;-85
2023/12/03 05:50:12;;;;;;;;;;;;;;;;;;;;;
2023/12/03 05:52:43;;;;;;;17.40;10.68;;;4.90;95.30;;;;;;5016054;28;20267;-87
2023/12/03 05:55:09;;;;;;;13.20;9.02;;;5.00;95.40;;;;;;5033425;28;20280;-88
2023/12/03 05:57:35;;;;;;;14.13;9.30;;;5.00;95.40;;;;;;5032985;28;20259;-88
2023/12/03 06:00:04;;;;;;;14.05;10.15;;;5.00;95.70;;;;;;5016525;28;20474;-86
2023/12/03 06:02:36;;;;;;;12.88;10.00;;;4.90;95.30;;;;;;5030730;28;20196;-87
2023/12/03 06:05:02;;;;;;;12.43;9.32;;;5.00;95.40;;;;;;5031849;28;20217;-88
2023/12/03 06:07:30;;;;;;;13.63;8.90;;;5.00;95.40;;;;;;5013320;28;20193;-87
2023/12/03 06:09:59;;;;;;;16.42;9.93;;;5.00;95.40;;;;;;5015420;28;20607;-86
2023/12/03 06:12:27;;;;;;;12.88;8.80;;;5.00;95.40;;;;;;5000948;28;20325;-88
2023/12/03 06:14:58;;;;;;;13.80;9.30;;;5.00;95.70;;;;;;5012012;28;20215;-88
2023/12/03 06:17:26;;;;;;;12.63;9.48;;;5.00;95.40;;;;;;4995548;28;20214;-87
2023/12/03 06:19:53;;;;;;;13.03;9.60;;;5.00;95.40;;;;;;4997635;28;20207;-88
2023/12/03 06:22:21;;;;;;;13.70;8.85;;;5.00;95.50;;;;;;5018204;28;20452;-87
2023/12/03 06:24:54;;;;;;;14.02;9.35;;;5.00;95.40;;;;;;4998269;28;20221;-88
2023/12/03 06:27:22;;;;;;;11.60;9.05;;;5.00;95.40;;;;;;5017814;28;20287;-87
2023/12/03 06:29:50;;;;;;;12.30;9.00;;;5.00;95.40;;;;;;5034815;28;20197;-87
2023/12/03 06:32:18;;;;;;;16.10;9.73;;;5.00;95.40;;;;;;4998206;28;20200;-86
2023/12/03 06:34:46;;;;;;;13.50;9.17;;;5.00;95.40;;;;;;5020956;28;20287;-87
2023/12/03 06:37:12;;;;;;;17.35;9.23;;;5.00;95.40;;;;;;5021785;28;20193;-85
2023/12/03 06:39:38;;;;;;;16.30;10.40;;;5.00;95.80;;;;;;5027315;28;20222;-88
2023/12/03 06:42:06;;;;;;;15.65;9.88;;;5.00;95.40;;;;;;5005418;28;20901;-88
2023/12/03 06:44:38;;;;;;;12.02;8.73;;;5.00;95.40;;;;;;5033700;28;20217;-87
2023/12/03 06:47:09;;;;;;;14.45;10.23;;;5.00;95.40;;;;;;5025867;28;20224;-86
2023/12/03 06:49:37;;;;;;;14.88;9.85;;;5.00;95.40;;;;;;5005936;28;20190;-87
2023/12/03 06:52:05;;;;;;;16.60;10.07;;;5.00;95.40;;;;;;5015199;28;20200;-88
2023/12/03 06:54:36;;;;;;;13.40;8.83;;;5.00;95.40;;;;;;5038488;28;20619;-87
2023/12/03 06:57:04;;;;;;;13.52;10.07;;;5.00;95.40;;;;;;5019150;28;20428;-88
2023/12/03 06:59:32;;;;;;;13.07;9.20;;;5.00;95.40;;;;;;5034102;28;20259;-87
2023/12/03 07:02:02;;;;;;;12.73;8.70;;;5.00;95.40;;;;;;5009787;28;20448;-87
2023/12/03 07:04:30;;;;;;;11.68;8.93;;;5.00;95.40;;;;;;5025319;28;20224;-88
2023/12/03 07:07:00;;;;;;;12.85;8.52;;;5.00;95.50;;;;;;5031437;28;20196;-87
2023/12/03 07:09:30;;;;;;;11.63;8.32;;;5.00;95.40;;;;;;5015561;28;20212;-87
2023/12/03 07:11:59;;;;;;;12.65;8.75;;;5.00;95.40;;;;;;5031748;28;20502;-87
2023/12/03 07:14:29;;;;;;;12.57;8.63;;;5.00;95.40;;;;;;5004039;28;20189;-87
2023/12/03 07:16:55;;;;;;;10.85;8.38;;;5.00;95.50;;;;;;5016135;28;20284;-87
2023/12/03 07:19:24;;;;;;;13.50;9.60;;;5.00;95.40;;;;;;5019428;28;20255;-88
2023/12/03 07:21:52;;;;;;;14.17;8.90;;;5.00;95.40;;;;;;5030586;28;20233;-88
2023/12/03 07:24:23;;;;;;;16.23;9.57;;;5.00;95.40;;;;;;5011133;28;20475;-88
2023/12/03 07:26:54;;;;;;;13.77;8.30;;;5.00;95.40;;;;;;4999877;28;20267;-85
2023/12/03 07:29:20;;;;;;;10.40;7.80;;;5.00;95.40;;;;;;5028778;28;20181;-87
2023/12/03 07:31:48;;;;;;;13.90;9.30;;;5.00;95.40;;;;;;5003351;28;20197;-86
2023/12/03 07:34:16;;;;;;;14.13;8.73;;;5.00;95.40;;;;;;5016938;28;21198;-87
2023/12/03 07:36:44;;;;;;;12.48;8.60;;;5.00;95.40;;;;;;4992758;28;20604;-87
2023/12/03 07:39:10;;;;;;;12.60;7.83;;;5.00;95.40;;;;;;5008223;28;20212;-87
2023/12/03 07:41:40;;;;;;;13.30;8.47;;;5.00;95.70;;;;;;5014339;28;20420;-87
2023/12/03 07:44:16;;;;;;;12.43;8.68;;;5.00;95.40;;;;;;5018897;28;20423;-86
2023/12/03 07:46:49;;;;;;;12.60;8.57;;;5.00;95.40;;;;;;5034599;28;20235;-85
2023/12/03 07:49:15;;;;;;;10.68;7.47;;;5.00;95.70;;;;;;5017922;28;20228;-86
2023/12/03 07:51:47;;;;;;;9.45;7.40;;;5.00;95.40;;;;;;5001430;28;20221;-87
2023/12/03 07:54:15;;;;;;;11.73;7.38;;;5.00;95.30;;;;;;5017661;28;20201;-86
2023/12/03 07:56:46;;;;;;;11.43;7.25;;;5.00;95.30;;;;;;5029403;28;20749;-88
2023/12/03 07:59:12;;;;;;;10.73;8.00;;;5.00;95.30;;;;;;5032320;28;20259;-88
2023/12/03 08:01:40;;;;;;;10.77;7.80;;;5.00;95.30;;;;;;4996938;28;20197;-87
2023/12/03 08:04:06;;;;;;;9.52;7.15;;;5.00;95.30;;;;;;5017400;28;20475;-87
2023/12/03 08:06:37;;;;;;;12.05;9.00;;;5.00;95.30;;;;;;5033878;28;20192;-87
2023/12/03 08:09:05;;;;;;;11.75;8.07;;;5.00;95.30;;;;;;5017046;28;20209;-88
2023/12/03 08:11:33;;;;;;;9.95;7.35;;;5.00;95.30;;;;;;5017198;28;20235;-88
2023/12/03 08:13:59;;;;;;;12.48;7.22;;;5.00;95.20;;;;;;5001135;28;20236;-87
2023/12/03 08:16:32;;;;;;;12.15;7.72;;;5.00;95.20;;;;;;5002027;28;20224;-86
2023/12/03 08:22:58;;;;;;;10.23;7.82;;;5.00;95.30;;;;;;5036009;28;20208;-90
2023/12/03 08:25:26;;;;;;;9.20;7.55;;;5.00;95.30;;;;;;5006266;28;20229;-89
2023/12/03 08:27:54;;;;;;;11.87;8.40;;;5.00;95.30;;;;;;5030666;28;20246;-89
2023/12/03 08:30:25;;;;;;;12.30;8.63;;;5.00;95.30;;;;;;5017182;28;20579;-89
2023/12/03 08:32:53;;;;;;;11.02;8.68;;;5.00;95.30;;;;;;5025763;28;20181;-88
2023/12/03 08:35:22;;;;;;;10.65;7.55;;;5.00;95.30;;;;;;4998896;28;20250;-85
2023/12/03 08:37:48;;;;;;;8.53;7.63;;;5.00;95.30;;;;;;5017069;28;20268;-87
2023/12/03 08:40:19;;;;;;;10.18;8.30;;;5.00;95.30;;;;;;4994907;28;20448;-87
2023/12/03 08:42:49;;;;;;;11.77;7.13;;;5.00;95.30;;;;;;5017305;28;20558;-89
2023/12/03 08:45:22;;;;;;;11.90;7.78;;;5.00;95.30;;;;;;5015016;28;20255;-89
2023/12/03 08:47:50;;;;;;;9.02;6.55;;;5.00;95.30;;;;;;5011106;28;20215;-88
2023/12/03 08:50:17;;;;;;;13.05;8.23;;;5.00;95.30;;;;;;5008703;28;20256;-86
2023/12/03 08:52:43;;;;;;;11.68;7.63;;;5.00;95.20;;;;;;5008265;28;20591;-89
2023/12/03 08:55:11;;;;;;;9.95;7.93;;;5.00;95.20;;;;;;5000310;28;20197;-88
2023/12/03 08:57:44;;;;;;;12.23;8.20;;;5.00;95.20;;;;;;5032971;28;20214;-87
2023/12/03 09:00:15;;;;;;;10.57;7.63;;;5.00;95.20;;;;;;5032778;28;20185;-88
2023/12/03 09:02:46;;;;;;;8.93;7.35;;;5.00;95.20;;;;;;5000142;28;20251;-84
2023/12/03 09:05:17;;;;;;;13.20;8.55;;;5.00;95.20;;;;;;4996545;28;20244;-88
2023/12/03 09:07:45;;;;;;;9.20;7.60;;;5.00;95.20;;;;;;5023751;28;20192;-83
2023/12/03 09:10:13;;;;;;;9.50;7.17;;;5.00;95.20;;;;;;5032011;28;20213;-88
2023/12/03 09:12:44;;;;;;;10.55;8.25;;;5.00;95.10;;;;;;4993851;28;20435;-88
2023/12/03 09:15:12;;;;;;;12.02;8.02;;;5.00;95.10;;;;;;5002188;28;20209;-86
2023/12/03 09:17:44;;;;;;;10.35;7.22;;;5.00;95.10;;;;;;4999259;28;20219;-86
2023/12/03 09:20:17;;;;;;;13.07;8.43;;;5.00;95.10;;;;;;5031407;28;20566;-87
2023/12/03 09:22:50;;;;;;;11.77;8.88;;;5.00;95.10;;;;;;5028854;28;20238;-87
2023/12/03 09:25:23;;;;;;;10.50;7.65;;;5.00;95.00;;;;;;5012541;28;20236;-86
2023/12/03 09:27:54;;;;;;;11.70;7.80;;;5.00;95.00;;;;;;5031755;28;20478;-85
2023/12/03 09:30:20;;;;;;;13.07;7.45;;;5.00;95.00;;;;;;4999153;28;20189;-88
2023/12/03 09:32:49;;;;;;;11.70;7.15;;;5.10;95.00;;;;;;4993587;23;20691;-36
2023/12/03 09:35:15;;;;;;;10.85;7.45;;;5.00;95.00;;;;;;4942342;28;20183;-37
2023/12/03 09:37:44;;;;;;;13.95;8.80;;;5.00;95.00;;;;;;4959881;28;20237;-39
2023/12/03 09:40:11;;;;;;;11.73;7.93;;;5.00;95.00;;;;;;4954899;28;20199;-35
2023/12/03 09:42:39;;;;;;;12.35;8.13;;;5.00;95.10;;;;;;4950308;28;20199;-36
2023/12/03 09:45:09;;;;;;;16.23;9.88;;;5.00;95.00;;;;;;4954988;28;20250;-35
2023/12/03 09:47:37;;;;;;;14.07;8.82;;;5.00;94.90;;;;;;4955540;28;20549;-37
2023/12/03 09:50:04;;;;;;;12.00;8.60;;;5.00;95.00;;;;;;4957019;28;20624;-34
2023/12/03 09:52:35;;;;;;;11.65;8.07;;;5.00;95.00;;;;;;4957178;28;20182;-32
2023/12/03 09:55:04;;;;;;;13.05;9.20;;;5.00;95.00;;;;;;4959561;28;20479;-36
2023/12/03 09:57:33;;;;;;;11.15;8.70;;;5.00;95.00;;;;;;4957066;28;20566;-31
2023/12/03 10:00:05;;;;;;;12.00;8.50;;;5.10;95.00;;;;;;4956119;28;20195;-35
2023/12/03 10:02:37;;;;;;;12.05;7.75;;;5.10;94.90;;;;;;4957098;28;20303;-36
2023/12/03 10:05:04;;;;;;;14.45;9.38;;;5.10;94.90;;;;;;4971190;28;20276;-34
2023/12/03 10:07:30;;;;;;;15.70;9.43;;;5.10;94.90;;;;;;4958810;28;20664;-34
2023/12/03 10:10:00;;;;;;;12.48;8.60;;;5.10;94.90;;;;;;4949004;28;20190;-34
2023/12/03 10:12:41;;;;;;;10.70;8.55;;;5.10;94.70;;;;;;4955434;28;20211;-37
2023/12/03 10:15:12;;;;;;;15.50;9.82;;;5.10;94.70;;;;;;4955064;28;20211;-34
2023/12/03 10:17:38;;;;;;;11.98;7.82;;;5.10;94.80;;;;;;4955807;28;20202;-35
2023/12/03 10:20:26;;;;;;;14.05;8.98;;;5.10;94.80;;;;;;4953258;28;20886;-34
2023/12/03 10:22:55;;;;;;;13.70;8.60;;;5.10;94.90;;;;;;4950110;28;20939;-35
2023/12/03 10:25:34;;;;;;;12.77;8.70;;;5.10;94.90;;;;;;4972417;28;20477;-35
2023/12/03 10:28:04;;;;;;;14.35;9.25;;;5.10;94.80;;;;;;4951870;28;20269;-36
2023/12/03 10:30:31;;;;;;;12.05;9.32;;;5.10;94.90;;;;;;4958209;28;20195;-33
2023/12/03 10:32:58;;;;;;;13.82;9.10;;;5.10;94.70;;;;;;4954521;28;20214;-33
2023/12/03 10:35:34;;;;;;;13.00;9.10;;;5.10;94.80;;;;;;4957918;28;20190;-36
2023/12/03 10:38:00;;;;;;;10.25;7.88;;;5.10;94.80;;;;;;4953659;28;20272;-36
2023/12/03 10:40:26;;;;;;;13.65;9.23;;;5.10;94.70;;;;;;4959830;28;20856;-34
2023/12/03 10:42:59;;;;;;;12.65;8.35;;;5.10;94.70;;;;;;4949532;28;20230;-38
2023/12/03 10:45:32;;;;;;;15.80;9.60;;;5.20;94.80;;;;;;4945454;28;20268;-35
2023/12/03 10:48:03;;;;;;;12.27;8.65;;;5.20;94.80;;;;;;4959575;28;20186;-37
2023/12/03 10:50:33;;;;;;;13.75;8.55;;;5.20;94.90;;;;;;4955947;28;20188;-34
2023/12/03 10:53:00;;;;;;;11.45;8.13;;;5.20;94.80;;;;;;4957476;28;20210;-32
2023/12/03 10:55:26;;;;;;;11.63;8.27;;;5.20;94.90;;;;;;4959129;28;20190;-33
2023/12/03 10:58:00;;;;;;;13.37;8.70;;;5.20;94.90;;;;;;4955997;28;20199;-36
2023/12/03 11:00:35;;;;;;;11.63;9.77;;;5.20;94.80;;;;;;4953850;28;21110;-36
2023/12/03 11:03:20;;;;;;;13.02;8.60;;;5.20;94.80;;;;;;4959257;28;20235;-37
2023/12/03 11:05:52;;;;;;;12.40;8.10;;;5.20;94.80;;;;;;4956694;28;20223;-32
2023/12/03 11:08:21;;;;;;;19.58;9.68;;;5.20;94.90;;;;;;4959036;28;20187;-34
2023/12/03 11:10:52;;;;;;;12.02;8.25;;;5.20;94.90;;;;;;4953922;28;20231;-30
2023/12/03 11:13:22;;;;;;;12.75;8.13;;;5.20;94.90;;;;;;4958529;28;20242;-33
2023/12/03 11:15:49;;;;;;;13.20;8.13;;;5.20;94.80;;;;;;4941609;28;20195;-34
2023/12/03 11:18:17;;;;;;;14.30;9.67;;;5.20;94.70;;;;;;4941463;28;20366;-32
2023/12/03 11:20:48;;;;;;;13.07;8.63;;;5.30;94.80;;;;;;4955457;28;20434;-35
2023/12/03 11:23:47;;;;;;;14.52;8.13;;;5.30;94.70;;;;;;4957442;28;20814;-32
2023/12/03 11:26:16;;;;;;;12.70;8.18;;;5.30;94.60;;;;;;4957169;28;20292;-37
2023/12/03 11:28:55;;;;;;;14.90;10.38;;;5.30;94.60;;;;;;4960691;28;20203;-34
2023/12/03 11:31:46;;;;;;;14.38;8.43;;;5.30;94.70;;;;;;4946288;28;20658;-40
2023/12/03 11:34:13;;;;;;;13.63;9.70;;;5.30;94.70;;;;;;4956873;28;20313;-35
2023/12/03 11:36:49;;;;;;;12.25;8.90;;;5.30;94.80;;;;;;4960273;28;20202;-38
2023/12/03 11:39:20;;;;;;;15.75;8.98;;;5.30;94.80;;;;;;4953970;28;20223;-31
2023/12/03 11:41:59;;;;;;;13.80;8.47;;;5.30;94.80;;;;;;4957918;28;20195;-32
2023/12/03 11:44:25;;;;;;;13.37;8.67;;;5.30;94.80;;;;;;4954073;28;20454;-34
2023/12/03 11:47:06;;;;;;;12.55;8.68;;;5.30;94.70;;;;;;4960358;28;20450;-35
2023/12/03 11:49:42;;;;;;;15.32;10.15;;;5.30;94.70;;;;;;4954451;28;20239;-37
2023/12/03 11:52:08;;;;;;;12.90;9.05;;;5.30;94.60;;;;;;4958919;28;20187;-34
2023/12/03 11:54:38;;;;;;;14.15;9.30;;;5.30;94.40;;;;;;4958752;28;20325;-32
2023/12/03 11:57:14;;;;;;;11.63;8.63;;;5.40;94.50;;;;;;4960478;28;21368;-37
2023/12/03 11:59:44;;;;;;;14.85;9.73;;;5.40;94.40;;;;;;4959811;28;20187;-38
2023/12/03 12:02:11;;;;;;;13.85;9.45;;;5.40;94.50;;;;;;4959163;28;20199;-39
2023/12/03 12:04:40;;;;;;;13.80;9.20;;;5.40;94.40;;;;;;4961230;28;20211;-37
2023/12/03 12:07:18;;;;;;;14.98;9.05;;;5.40;94.30;;;;;;4961498;28;20207;-34
2023/12/03 12:09:49;;;;;;;15.48;9.65;;;5.40;94.30;;;;;;4960181;28;20183;-37
2023/12/03 12:12:16;;;;;;;14.50;9.40;;;5.40;94.30;;;;;;4938667;28;20198;-35
2023/12/03 12:14:43;;;;;;;15.70;9.20;;;5.40;94.30;;;;;;4959628;28;20977;-40
2023/12/03 12:17:12;;;;;;;18.15;8.75;;;5.40;94.30;;;;;;4960358;28;20670;-37
2023/12/03 12:19:49;;;;;;;11.00;8.37;;;5.40;94.30;;;;;;4960570;28;20899;-36
2023/12/03 12:22:16;;;;;;;13.93;8.35;;;5.40;94.30;;;;;;4960371;28;20469;-37
2023/12/03 12:24:44;;;;;;;14.75;9.20;;;5.40;94.20;;;;;;4960301;28;20222;-35
2023/12/03 12:27:11;;;;;;;14.25;9.45;;;5.40;94.20;;;;;;4957983;28;20225;-36
2023/12/03 12:29:37;;;;;;;13.60;8.30;;;5.40;94.10;;;;;;4963656;28;20698;-39
2023/12/03 12:32:04;;;;;;;14.82;10.15;;;5.40;94.10;;;;;;4960578;28;20191;-39
2023/12/03 12:34:32;;;;;;;13.10;9.98;;;5.40;94.10;;;;;;4943111;28;20211;-35
2023/12/03 12:37:08;;;;;;;12.73;8.70;;;5.40;94.00;;;;;;4958906;28;21025;-34
2023/12/03 12:39:35;;;;;;;12.88;8.35;;;5.40;94.00;;;;;;4958124;28;20229;-33
2023/12/03 12:42:01;;;;;;;13.20;9.70;;;5.50;94.00;;;;;;4959572;28;20191;-39
2023/12/03 12:44:41;;;;;;;14.00;8.95;;;5.50;93.90;;;;;;4960245;28;20211;-37
2023/12/03 12:47:08;;;;;;;15.73;9.90;;;5.50;93.90;;;;;;4959105;28;20327;-38
2023/12/03 12:49:35;;;;;;;16.98;10.63;;;5.40;93.80;;;;;;4946173;28;21023;-35
2023/12/03 12:52:15;;;;;;;13.88;10.07;;;5.50;93.90;;;;;;4959006;28;21199;-38
2023/12/03 12:54:45;;;;;;;12.23;8.75;;;5.50;93.90;;;;;;4953403;28;21058;-40
2023/12/03 12:57:14;;;;;;;14.55;9.10;;;5.40;94.00;;;;;;4958308;28;20228;-39
2023/12/03 12:59:41;;;;;;;12.48;8.77;;;5.40;94.00;;;;;;4956443;28;20285;-35
2023/12/03 13:02:19;;;;;;;14.38;9.68;;;5.50;94.10;;;;;;4957609;28;20255;-35